sensor_id;sensor_type;location;lat;lon;timestamp;temperature;humidity
21184;DHT22;18176;49.502;11.754;2022-12-29T00:01:45;4.70;99.90
21184;DHT22;18176;49.502;11.754;2022-12-29T00:05:54;4.70;99.90
21184;DHT22;18176;49.502;11.754;2022-12-29T00:09:55;4.70;99.90
21184;DHT22;18176;49.502;11.754;2022-12-29T00:13:55;4.70;99.90
21184;DHT22;18176;49.502;11.754;2022-12-29T00:18:08;4.80;99.90
21184;DHT22;18176;49.502;11.754;2022-12-29T00:22:13;4.80;99.90
21184;DHT22;18176;49.502;11.754;2022-12-29T00:26:26;4.80;99.90
21184;DHT22;18176;49.502;11.754;2022-12-29T00:30:39;4.80;99.90
21184;DHT22;18176;49.502;11.754;2022-12-29T00:34:52;4.90;99.90
21184;DHT22;18176;49.502;11.754;2022-12-29T00:39:15;4.90;99.90
21184;DHT22;18176;49.502;11.754;2022-12-29T00:43:30;4.80;99.90
21184;DHT22;18176;49.502;11.754;2022-12-29T00:47:43;4.80;99.90
21184;DHT22;18176;49.502;11.754;2022-12-29T00:51:43;4.70;99.90
21184;DHT22;18176;49.502;11.754;2022-12-29T00:55:46;4.60;99.90
21184;DHT22;18176;49.502;11.754;2022-12-29T00:59:46;4.70;99.90
21184;DHT22;18176;49.502;11.754;2022-12-29T01:03:46;4.80;99.90
21184;DHT22;18176;49.502;11.754;2022-12-29T01:07:49;4.80;99.90
21184;DHT22;18176;49.502;11.754;2022-12-29T01:11:51;4.80;99.90
21184;DHT22;18176;49.502;11.754;2022-12-29T01:15:52;4.80;99.90
21184;DHT22;18176;49.502;11.754;2022-12-29T01:19:53;4.70;99.90
21184;DHT22;18176;49.502;11.754;2022-12-29T01:23:53;4.70;99.90
21184;DHT22;18176;49.502;11.754;2022-12-29T01:27:55;4.70;99.90
21184;DHT22;18176;49.502;11.754;2022-12-29T01:31:56;4.60;99.90
21184;DHT22;18176;49.502;11.754;2022-12-29T01:36:00;4.50;99.90
21184;DHT22;18176;49.502;11.754;2022-12-29T01:40:00;4.50;99.90
21184;DHT22;18176;49.502;11.754;2022-12-29T01:48:58;4.50;99.90
21184;DHT22;18176;49.502;11.754;2022-12-29T01:53:08;4.50;99.90
21184;DHT22;18176;49.502;11.754;2022-12-29T01:57:14;4.50;99.90
21184;DHT22;18176;49.502;11.754;2022-12-29T02:01:21;4.50;99.90
21184;DHT22;18176;49.502;11.754;2022-12-29T02:05:25;4.50;99.90
21184;DHT22;18176;49.502;11.754;2022-12-29T02:09:34;4.40;99.90
21184;DHT22;18176;49.502;11.754;2022-12-29T02:13:34;4.40;99.90
21184;DHT22;18176;49.502;11.754;2022-12-29T02:17:53;4.40;99.90
21184;DHT22;18176;49.502;11.754;2022-12-29T02:22:13;4.40;99.90
21184;DHT22;18176;49.502;11.754;2022-12-29T02:26:33;4.40;99.90
21184;DHT22;18176;49.502;11.754;2022-12-29T02:30:58;4.40;99.90
21184;DHT22;18176;49.502;11.754;2022-12-29T02:35:09;4.40;99.90
21184;DHT22;18176;49.502;11.754;2022-12-29T02:39:26;4.40;99.90
21184;DHT22;18176;49.502;11.754;2022-12-29T02:43:39;4.40;99.90
21184;DHT22;18176;49.502;11.754;2022-12-29T02:47:56;4.40;99.90
21184;DHT22;18176;49.502;11.754;2022-12-29T02:52:06;4.40;99.90
21184;DHT22;18176;49.502;11.754;2022-12-29T02:56:13;4.40;99.90
21184;DHT22;18176;49.502;11.754;2022-12-29T03:00:16;4.40;99.90
21184;DHT22;18176;49.502;11.754;2022-12-29T03:04:29;4.40;99.90
21184;DHT22;18176;49.502;11.754;2022-12-29T03:08:42;4.40;99.90
21184;DHT22;18176;49.502;11.754;2022-12-29T03:12:51;4.40;99.90
21184;DHT22;18176;49.502;11.754;2022-12-29T03:17:16;4.30;99.90
21184;DHT22;18176;49.502;11.754;2022-12-29T03:21:29;4.40;99.90
21184;DHT22;18176;49.502;11.754;2022-12-29T03:25:49;4.40;99.90
21184;DHT22;18176;49.502;11.754;2022-12-29T03:29:56;4.40;99.90
21184;DHT22;18176;49.502;11.754;2022-12-29T03:34:00;4.40;99.90
21184;DHT22;18176;49.502;11.754;2022-12-29T03:38:09;4.50;99.90
21184;DHT22;18176;49.502;11.754;2022-12-29T03:42:19;4.50;99.90
21184;DHT22;18176;49.502;11.754;2022-12-29T03:46:23;4.50;99.90
21184;DHT22;18176;49.502;11.754;2022-12-29T03:50:24;4.50;99.90
21184;DHT22;18176;49.502;11.754;2022-12-29T03:54:26;4.60;99.90
21184;DHT22;18176;49.502;11.754;2022-12-29T03:58:27;4.60;99.90
21184;DHT22;18176;49.502;11.754;2022-12-29T04:02:37;4.70;99.90
21184;DHT22;18176;49.502;11.754;2022-12-29T04:06:39;4.70;99.90
21184;DHT22;18176;49.502;11.754;2022-12-29T04:10:42;4.60;99.90
21184;DHT22;18176;49.502;11.754;2022-12-29T04:14:45;4.70;99.90
21184;DHT22;18176;49.502;11.754;2022-12-29T04:18:45;4.70;99.90
21184;DHT22;18176;49.502;11.754;2022-12-29T04:22:45;4.60;99.90
21184;DHT22;18176;49.502;11.754;2022-12-29T04:26:48;4.70;99.90
21184;DHT22;18176;49.502;11.754;2022-12-29T04:30:58;4.60;99.90
21184;DHT22;18176;49.502;11.754;2022-12-29T04:35:04;4.60;99.90
21184;DHT22;18176;49.502;11.754;2022-12-29T04:39:06;4.70;99.90
21184;DHT22;18176;49.502;11.754;2022-12-29T04:43:11;4.80;99.90
21184;DHT22;18176;49.502;11.754;2022-12-29T04:47:43;4.80;99.90
21184;DHT22;18176;49.502;11.754;2022-12-29T04:52:07;4.70;99.90
21184;DHT22;18176;49.502;11.754;2022-12-29T04:56:08;4.60;99.90
21184;DHT22;18176;49.502;11.754;2022-12-29T05:00:13;4.50;99.90
21184;DHT22;18176;49.502;11.754;2022-12-29T05:04:14;4.50;99.90
21184;DHT22;18176;49.502;11.754;2022-12-29T05:08:16;4.60;99.90
21184;DHT22;18176;49.502;11.754;2022-12-29T05:12:24;4.70;99.90
21184;DHT22;18176;49.502;11.754;2022-12-29T05:16:30;4.70;99.90
21184;DHT22;18176;49.502;11.754;2022-12-29T05:20:31;4.70;99.90
21184;DHT22;18176;49.502;11.754;2022-12-29T05:24:32;4.70;99.90
21184;DHT22;18176;49.502;11.754;2022-12-29T05:28:32;4.60;99.90
21184;DHT22;18176;49.502;11.754;2022-12-29T05:32:42;4.60;99.90
21184;DHT22;18176;49.502;11.754;2022-12-29T05:36:42;4.70;99.90
21184;DHT22;18176;49.502;11.754;2022-12-29T05:40:44;4.80;99.90
21184;DHT22;18176;49.502;11.754;2022-12-29T05:45:09;4.90;99.90
21184;DHT22;18176;49.502;11.754;2022-12-29T05:49:45;5.10;99.90
21184;DHT22;18176;49.502;11.754;2022-12-29T05:54:01;5.20;99.90
21184;DHT22;18176;49.502;11.754;2022-12-29T05:58:01;5.20;99.90
21184;DHT22;18176;49.502;11.754;2022-12-29T06:02:01;5.30;99.90
21184;DHT22;18176;49.502;11.754;2022-12-29T06:06:05;5.40;99.90
21184;DHT22;18176;49.502;11.754;2022-12-29T06:10:07;5.50;99.90
21184;DHT22;18176;49.502;11.754;2022-12-29T06:14:19;5.40;99.90
21184;DHT22;18176;49.502;11.754;2022-12-29T06:18:19;5.40;99.90
21184;DHT22;18176;49.502;11.754;2022-12-29T06:22:23;5.50;99.90
21184;DHT22;18176;49.502;11.754;2022-12-29T06:26:23;5.30;99.90
21184;DHT22;18176;49.502;11.754;2022-12-29T06:30:23;5.20;99.90
21184;DHT22;18176;49.502;11.754;2022-12-29T06:34:23;5.10;99.90
21184;DHT22;18176;49.502;11.754;2022-12-29T06:38:26;5.10;99.90
21184;DHT22;18176;49.502;11.754;2022-12-29T06:42:28;5.20;99.90
21184;DHT22;18176;49.502;11.754;2022-12-29T06:46:56;5.10;99.90
21184;DHT22;18176;49.502;11.754;2022-12-29T06:50:56;5.10;99.90
21184;DHT22;18176;49.502;11.754;2022-12-29T06:54:59;5.00;99.90
21184;DHT22;18176;49.502;11.754;2022-12-29T06:58:59;5.10;99.90
21184;DHT22;18176;49.502;11.754;2022-12-29T07:03:00;5.00;99.90
21184;DHT22;18176;49.502;11.754;2022-12-29T07:07:00;5.00;99.90
21184;DHT22;18176;49.502;11.754;2022-12-29T07:11:03;5.00;99.90
21184;DHT22;18176;49.502;11.754;2022-12-29T07:15:04;5.00;99.90
21184;DHT22;18176;49.502;11.754;2022-12-29T07:19:05;5.00;99.90
21184;DHT22;18176;49.502;11.754;2022-12-29T07:23:05;5.00;99.90
21184;DHT22;18176;49.502;11.754;2022-12-29T07:27:08;5.00;99.90
21184;DHT22;18176;49.502;11.754;2022-12-29T07:31:13;5.00;99.90
21184;DHT22;18176;49.502;11.754;2022-12-29T07:35:15;4.90;99.90
21184;DHT22;18176;49.502;11.754;2022-12-29T07:39:16;4.90;99.90
21184;DHT22;18176;49.502;11.754;2022-12-29T07:43:18;5.00;99.90
21184;DHT22;18176;49.502;11.754;2022-12-29T07:47:39;5.10;99.90
21184;DHT22;18176;49.502;11.754;2022-12-29T07:51:39;5.30;99.90
21184;DHT22;18176;49.502;11.754;2022-12-29T07:55:40;5.40;99.90
21184;DHT22;18176;49.502;11.754;2022-12-29T07:59:44;5.60;99.90
21184;DHT22;18176;49.502;11.754;2022-12-29T08:03:44;5.70;99.90
21184;DHT22;18176;49.502;11.754;2022-12-29T08:07:51;5.80;99.90
21184;DHT22;18176;49.502;11.754;2022-12-29T08:11:51;5.90;99.90
21184;DHT22;18176;49.502;11.754;2022-12-29T08:15:57;6.00;99.90
21184;DHT22;18176;49.502;11.754;2022-12-29T08:19:58;6.10;99.90
21184;DHT22;18176;49.502;11.754;2022-12-29T08:23:58;6.20;99.90
21184;DHT22;18176;49.502;11.754;2022-12-29T08:27:59;6.30;99.90
21184;DHT22;18176;49.502;11.754;2022-12-29T08:32:02;6.40;99.90
21184;DHT22;18176;49.502;11.754;2022-12-29T08:36:05;6.50;99.90
21184;DHT22;18176;49.502;11.754;2022-12-29T08:40:07;6.60;99.90
21184;DHT22;18176;49.502;11.754;2022-12-29T08:44:08;6.60;99.90
21184;DHT22;18176;49.502;11.754;2022-12-29T08:48:11;6.60;99.90
21184;DHT22;18176;49.502;11.754;2022-12-29T08:52:15;6.60;99.90
21184;DHT22;18176;49.502;11.754;2022-12-29T08:56:16;6.60;99.90
21184;DHT22;18176;49.502;11.754;2022-12-29T09:00:20;6.50;99.90
21184;DHT22;18176;49.502;11.754;2022-12-29T09:04:25;6.50;99.90
21184;DHT22;18176;49.502;11.754;2022-12-29T09:08:25;6.60;99.90
21184;DHT22;18176;49.502;11.754;2022-12-29T09:12:26;6.70;99.90
21184;DHT22;18176;49.502;11.754;2022-12-29T09:16:33;6.80;99.90
21184;DHT22;18176;49.502;11.754;2022-12-29T09:20:37;7.00;99.90
21184;DHT22;18176;49.502;11.754;2022-12-29T09:24:37;7.20;99.90
21184;DHT22;18176;49.502;11.754;2022-12-29T09:28:37;7.50;99.90
21184;DHT22;18176;49.502;11.754;2022-12-29T09:32:44;7.90;99.90
21184;DHT22;18176;49.502;11.754;2022-12-29T09:36:53;8.40;99.90
21184;DHT22;18176;49.502;11.754;2022-12-29T09:40:55;9.10;99.90
21184;DHT22;18176;49.502;11.754;2022-12-29T09:45:08;10.10;99.90
21184;DHT22;18176;49.502;11.754;2022-12-29T09:49:19;10.90;99.90
21184;DHT22;18176;49.502;11.754;2022-12-29T09:53:31;11.00;99.90
21184;DHT22;18176;49.502;11.754;2022-12-29T09:57:41;11.20;99.90
21184;DHT22;18176;49.502;11.754;2022-12-29T10:01:53;11.30;99.90
21184;DHT22;18176;49.502;11.754;2022-12-29T10:06:11;11.20;99.90
21184;DHT22;18176;49.502;11.754;2022-12-29T10:10:33;11.30;99.90
21184;DHT22;18176;49.502;11.754;2022-12-29T10:14:49;11.60;99.90
21184;DHT22;18176;49.502;11.754;2022-12-29T10:19:18;12.20;99.90
21184;DHT22;18176;49.502;11.754;2022-12-29T10:23:45;12.90;99.90
21184;DHT22;18176;49.502;11.754;2022-12-29T10:27:54;12.30;99.90
21184;DHT22;18176;49.502;11.754;2022-12-29T10:32:00;11.80;99.90
21184;DHT22;18176;49.502;11.754;2022-12-29T10:36:12;11.30;99.90
21184;DHT22;18176;49.502;11.754;2022-12-29T10:40:22;11.00;99.90
21184;DHT22;18176;49.502;11.754;2022-12-29T10:44:31;11.00;99.90
21184;DHT22;18176;49.502;11.754;2022-12-29T10:48:34;11.10;99.90
21184;DHT22;18176;49.502;11.754;2022-12-29T10:52:35;11.40;99.90
21184;DHT22;18176;49.502;11.754;2022-12-29T10:56:40;11.40;99.90
21184;DHT22;18176;49.502;11.754;2022-12-29T11:00:49;11.50;99.90
21184;DHT22;18176;49.502;11.754;2022-12-29T11:04:57;11.40;99.90
21184;DHT22;18176;49.502;11.754;2022-12-29T11:09:09;11.50;99.90
21184;DHT22;18176;49.502;11.754;2022-12-29T11:13:16;11.50;99.90
21184;DHT22;18176;49.502;11.754;2022-12-29T11:17:20;11.70;99.90
21184;DHT22;18176;49.502;11.754;2022-12-29T11:21:27;11.80;99.90
21184;DHT22;18176;49.502;11.754;2022-12-29T11:25:37;11.70;99.90
21184;DHT22;18176;49.502;11.754;2022-12-29T11:29:40;11.50;99.90
21184;DHT22;18176;49.502;11.754;2022-12-29T11:33:44;11.40;99.90
21184;DHT22;18176;49.502;11.754;2022-12-29T11:37:44;11.30;99.90
21184;DHT22;18176;49.502;11.754;2022-12-29T11:41:51;11.30;99.90
21184;DHT22;18176;49.502;11.754;2022-12-29T11:45:53;11.30;99.90
21184;DHT22;18176;49.502;11.754;2022-12-29T11:49:58;11.30;99.90
21184;DHT22;18176;49.502;11.754;2022-12-29T11:54:01;11.50;99.90
21184;DHT22;18176;49.502;11.754;2022-12-29T11:58:04;11.60;99.90
21184;DHT22;18176;49.502;11.754;2022-12-29T12:02:22;11.60;99.90
21184;DHT22;18176;49.502;11.754;2022-12-29T12:06:44;11.70;99.90
21184;DHT22;18176;49.502;11.754;2022-12-29T12:10:53;11.90;99.90
21184;DHT22;18176;49.502;11.754;2022-12-29T12:14:59;12.00;99.90
21184;DHT22;18176;49.502;11.754;2022-12-29T12:19:23;12.20;99.90
21184;DHT22;18176;49.502;11.754;2022-12-29T12:23:40;12.50;99.90
21184;DHT22;18176;49.502;11.754;2022-12-29T12:27:57;12.40;99.90
21184;DHT22;18176;49.502;11.754;2022-12-29T12:32:04;12.30;99.90
21184;DHT22;18176;49.502;11.754;2022-12-29T12:36:23;12.30;99.90
21184;DHT22;18176;49.502;11.754;2022-12-29T12:40:47;12.30;99.90
21184;DHT22;18176;49.502;11.754;2022-12-29T12:45:13;12.60;99.90
21184;DHT22;18176;49.502;11.754;2022-12-29T12:49:40;12.50;99.90
21184;DHT22;18176;49.502;11.754;2022-12-29T12:54:11;12.40;99.90
21184;DHT22;18176;49.502;11.754;2022-12-29T12:58:27;12.60;99.90
21184;DHT22;18176;49.502;11.754;2022-12-29T13:02:47;12.50;99.90
21184;DHT22;18176;49.502;11.754;2022-12-29T13:07:11;12.50;99.90
21184;DHT22;18176;49.502;11.754;2022-12-29T13:11:27;12.40;99.90
21184;DHT22;18176;49.502;11.754;2022-12-29T13:15:41;12.20;99.90
21184;DHT22;18176;49.502;11.754;2022-12-29T13:19:54;12.00;99.90
21184;DHT22;18176;49.502;11.754;2022-12-29T13:24:08;11.90;99.90
21184;DHT22;18176;49.502;11.754;2022-12-29T13:28:20;12.00;99.90
21184;DHT22;18176;49.502;11.754;2022-12-29T13:32:35;12.00;99.90
21184;DHT22;18176;49.502;11.754;2022-12-29T13:36:46;11.90;99.90
21184;DHT22;18176;49.502;11.754;2022-12-29T13:40:54;11.80;99.90
21184;DHT22;18176;49.502;11.754;2022-12-29T13:45:01;11.80;99.90
21184;DHT22;18176;49.502;11.754;2022-12-29T13:49:10;11.70;99.90
21184;DHT22;18176;49.502;11.754;2022-12-29T13:53:22;11.70;99.90
21184;DHT22;18176;49.502;11.754;2022-12-29T13:57:35;11.60;99.90
21184;DHT22;18176;49.502;11.754;2022-12-29T14:01:48;11.50;99.90
21184;DHT22;18176;49.502;11.754;2022-12-29T14:06:13;11.50;99.90
21184;DHT22;18176;49.502;11.754;2022-12-29T14:10:27;11.40;99.90
21184;DHT22;18176;49.502;11.754;2022-12-29T14:14:30;11.30;99.90
21184;DHT22;18176;49.502;11.754;2022-12-29T14:18:32;11.20;99.90
21184;DHT22;18176;49.502;11.754;2022-12-29T14:22:55;11.20;99.90
21184;DHT22;18176;49.502;11.754;2022-12-29T14:26:58;11.20;99.90
21184;DHT22;18176;49.502;11.754;2022-12-29T14:30:59;11.10;99.90
21184;DHT22;18176;49.502;11.754;2022-12-29T14:39:43;11.00;99.90
21184;DHT22;18176;49.502;11.754;2022-12-29T14:43:53;10.90;99.90
21184;DHT22;18176;49.502;11.754;2022-12-29T14:47:57;10.70;99.90
21184;DHT22;18176;49.502;11.754;2022-12-29T14:52:06;10.70;99.90
21184;DHT22;18176;49.502;11.754;2022-12-29T14:56:17;10.60;99.90
21184;DHT22;18176;49.502;11.754;2022-12-29T15:00:22;10.50;99.90
21184;DHT22;18176;49.502;11.754;2022-12-29T15:04:28;10.40;99.90
21184;DHT22;18176;49.502;11.754;2022-12-29T15:08:35;10.30;99.90
21184;DHT22;18176;49.502;11.754;2022-12-29T15:12:45;10.20;99.90
21184;DHT22;18176;49.502;11.754;2022-12-29T15:16:51;10.20;99.90
21184;DHT22;18176;49.502;11.754;2022-12-29T15:20:53;10.20;99.90
21184;DHT22;18176;49.502;11.754;2022-12-29T15:24:56;10.10;99.90
21184;DHT22;18176;49.502;11.754;2022-12-29T15:29:00;10.10;99.90
21184;DHT22;18176;49.502;11.754;2022-12-29T15:33:00;10.00;99.90
21184;DHT22;18176;49.502;11.754;2022-12-29T15:37:06;10.00;99.90
21184;DHT22;18176;49.502;11.754;2022-12-29T15:41:21;10.00;99.90
21184;DHT22;18176;49.502;11.754;2022-12-29T15:45:32;9.90;99.90
21184;DHT22;18176;49.502;11.754;2022-12-29T15:49:34;10.10;99.90
21184;DHT22;18176;49.502;11.754;2022-12-29T15:53:35;10.20;99.90
21184;DHT22;18176;49.502;11.754;2022-12-29T15:57:41;10.20;99.90
21184;DHT22;18176;49.502;11.754;2022-12-29T16:01:45;10.20;99.90
21184;DHT22;18176;49.502;11.754;2022-12-29T16:05:51;10.10;99.90
21184;DHT22;18176;49.502;11.754;2022-12-29T16:09:57;10.10;99.90
21184;DHT22;18176;49.502;11.754;2022-12-29T16:13:58;10.00;99.90
21184;DHT22;18176;49.502;11.754;2022-12-29T16:18:01;10.00;99.90
21184;DHT22;18176;49.502;11.754;2022-12-29T16:22:03;10.00;99.90
21184;DHT22;18176;49.502;11.754;2022-12-29T16:26:15;9.80;99.90
21184;DHT22;18176;49.502;11.754;2022-12-29T16:30:20;9.80;99.90
21184;DHT22;18176;49.502;11.754;2022-12-29T16:34:33;9.70;99.90
21184;DHT22;18176;49.502;11.754;2022-12-29T16:38:42;9.60;99.90
21184;DHT22;18176;49.502;11.754;2022-12-29T16:42:46;9.50;99.90
21184;DHT22;18176;49.502;11.754;2022-12-29T16:47:04;9.40;99.90
21184;DHT22;18176;49.502;11.754;2022-12-29T16:51:28;9.40;99.90
21184;DHT22;18176;49.502;11.754;2022-12-29T16:55:30;9.50;99.90
21184;DHT22;18176;49.502;11.754;2022-12-29T16:59:33;9.60;99.90
21184;DHT22;18176;49.502;11.754;2022-12-29T17:03:39;9.60;99.90
21184;DHT22;18176;49.502;11.754;2022-12-29T17:07:45;9.80;99.90
21184;DHT22;18176;49.502;11.754;2022-12-29T17:11:49;9.80;99.90
21184;DHT22;18176;49.502;11.754;2022-12-29T17:16:07;9.90;99.90
21184;DHT22;18176;49.502;11.754;2022-12-29T17:20:16;9.90;99.90
21184;DHT22;18176;49.502;11.754;2022-12-29T17:24:20;10.00;99.90
21184;DHT22;18176;49.502;11.754;2022-12-29T17:28:22;9.90;99.90
21184;DHT22;18176;49.502;11.754;2022-12-29T17:32:25;9.80;99.90
21184;DHT22;18176;49.502;11.754;2022-12-29T17:36:26;9.70;99.90
21184;DHT22;18176;49.502;11.754;2022-12-29T17:40:31;9.70;99.90
21184;DHT22;18176;49.502;11.754;2022-12-29T17:44:32;9.80;99.90
21184;DHT22;18176;49.502;11.754;2022-12-29T17:48:32;9.80;99.90
21184;DHT22;18176;49.502;11.754;2022-12-29T17:52:33;9.80;99.90
21184;DHT22;18176;49.502;11.754;2022-12-29T17:56:36;9.70;99.90
21184;DHT22;18176;49.502;11.754;2022-12-29T18:00:36;9.80;99.90
21184;DHT22;18176;49.502;11.754;2022-12-29T18:04:37;9.90;99.90
21184;DHT22;18176;49.502;11.754;2022-12-29T18:08:38;10.00;99.90
21184;DHT22;18176;49.502;11.754;2022-12-29T18:12:45;10.00;99.90
21184;DHT22;18176;49.502;11.754;2022-12-29T18:16:47;10.10;99.90
21184;DHT22;18176;49.502;11.754;2022-12-29T18:20:49;10.00;99.90
21184;DHT22;18176;49.502;11.754;2022-12-29T18:24:51;9.80;99.90
21184;DHT22;18176;49.502;11.754;2022-12-29T18:28:54;9.50;99.90
21184;DHT22;18176;49.502;11.754;2022-12-29T18:32:55;9.10;99.90
21184;DHT22;18176;49.502;11.754;2022-12-29T18:36:55;8.80;99.90
21184;DHT22;18176;49.502;11.754;2022-12-29T18:40:57;8.60;99.90
21184;DHT22;18176;49.502;11.754;2022-12-29T18:45:01;8.50;99.90
21184;DHT22;18176;49.502;11.754;2022-12-29T18:49:01;8.40;99.90
21184;DHT22;18176;49.502;11.754;2022-12-29T18:53:01;8.30;99.90
21184;DHT22;18176;49.502;11.754;2022-12-29T18:57:02;8.20;99.90
21184;DHT22;18176;49.502;11.754;2022-12-29T19:01:05;8.10;99.90
21184;DHT22;18176;49.502;11.754;2022-12-29T19:05:18;8.00;99.90
21184;DHT22;18176;49.502;11.754;2022-12-29T19:09:20;7.90;99.90
21184;DHT22;18176;49.502;11.754;2022-12-29T19:13:22;7.90;99.90
21184;DHT22;18176;49.502;11.754;2022-12-29T19:17:27;7.80;99.90
21184;DHT22;18176;49.502;11.754;2022-12-29T19:21:28;7.80;99.90
21184;DHT22;18176;49.502;11.754;2022-12-29T19:25:29;7.70;99.90
21184;DHT22;18176;49.502;11.754;2022-12-29T19:29:30;7.70;99.90
21184;DHT22;18176;49.502;11.754;2022-12-29T19:33:34;7.70;99.90
21184;DHT22;18176;49.502;11.754;2022-12-29T19:37:34;7.70;99.90
21184;DHT22;18176;49.502;11.754;2022-12-29T19:41:36;7.70;99.90
21184;DHT22;18176;49.502;11.754;2022-12-29T19:45:38;7.70;99.90
21184;DHT22;18176;49.502;11.754;2022-12-29T19:49:41;7.80;99.90
21184;DHT22;18176;49.502;11.754;2022-12-29T19:53:42;7.80;99.90
21184;DHT22;18176;49.502;11.754;2022-12-29T19:57:44;7.80;99.90
21184;DHT22;18176;49.502;11.754;2022-12-29T20:01:45;7.80;99.90
21184;DHT22;18176;49.502;11.754;2022-12-29T20:05:49;7.80;99.90
21184;DHT22;18176;49.502;11.754;2022-12-29T20:09:49;7.80;99.90
21184;DHT22;18176;49.502;11.754;2022-12-29T20:13:50;7.80;99.90
21184;DHT22;18176;49.502;11.754;2022-12-29T20:17:50;7.80;99.90
21184;DHT22;18176;49.502;11.754;2022-12-29T20:22:12;7.80;99.90
21184;DHT22;18176;49.502;11.754;2022-12-29T20:26:14;7.70;99.90
21184;DHT22;18176;49.502;11.754;2022-12-29T20:30:16;7.70;99.90
21184;DHT22;18176;49.502;11.754;2022-12-29T20:34:18;7.80;99.90
21184;DHT22;18176;49.502;11.754;2022-12-29T20:38:22;7.80;99.90
21184;DHT22;18176;49.502;11.754;2022-12-29T20:42:22;7.80;99.90
21184;DHT22;18176;49.502;11.754;2022-12-29T20:46:23;7.80;99.90
21184;DHT22;18176;49.502;11.754;2022-12-29T20:50:32;7.80;99.90
21184;DHT22;18176;49.502;11.754;2022-12-29T20:54:35;7.80;99.90
21184;DHT22;18176;49.502;11.754;2022-12-29T20:58:36;7.80;99.90
21184;DHT22;18176;49.502;11.754;2022-12-29T21:02:56;7.80;99.90
21184;DHT22;18176;49.502;11.754;2022-12-29T21:06:57;7.80;99.90
21184;DHT22;18176;49.502;11.754;2022-12-29T21:11:01;7.70;99.90
21184;DHT22;18176;49.502;11.754;2022-12-29T21:15:03;7.70;99.90
21184;DHT22;18176;49.502;11.754;2022-12-29T21:19:05;7.60;99.90
21184;DHT22;18176;49.502;11.754;2022-12-29T21:23:06;7.60;99.90
21184;DHT22;18176;49.502;11.754;2022-12-29T21:27:09;7.60;99.90
21184;DHT22;18176;49.502;11.754;2022-12-29T21:31:10;7.60;99.90
21184;DHT22;18176;49.502;11.754;2022-12-29T21:35:17;7.60;99.90
21184;DHT22;18176;49.502;11.754;2022-12-29T21:39:17;7.50;99.90
21184;DHT22;18176;49.502;11.754;2022-12-29T21:43:20;7.50;99.90
21184;DHT22;18176;49.502;11.754;2022-12-29T21:47:20;7.40;99.90
21184;DHT22;18176;49.502;11.754;2022-12-29T21:51:21;7.50;99.90
21184;DHT22;18176;49.502;11.754;2022-12-29T21:55:34;7.50;99.90
21184;DHT22;18176;49.502;11.754;2022-12-29T21:59:36;7.40;99.90
21184;DHT22;18176;49.502;11.754;2022-12-29T22:03:49;7.40;99.90
21184;DHT22;18176;49.502;11.754;2022-12-29T22:08:03;7.40;99.90
21184;DHT22;18176;49.502;11.754;2022-12-29T22:12:16;7.40;99.90
21184;DHT22;18176;49.502;11.754;2022-12-29T22:16:31;7.40;99.90
21184;DHT22;18176;49.502;11.754;2022-12-29T22:20:33;7.40;99.90
21184;DHT22;18176;49.502;11.754;2022-12-29T22:24:35;7.40;99.90
21184;DHT22;18176;49.502;11.754;2022-12-29T22:28:35;7.30;99.90
21184;DHT22;18176;49.502;11.754;2022-12-29T22:32:39;7.30;99.90
21184;DHT22;18176;49.502;11.754;2022-12-29T22:36:39;7.20;99.90
21184;DHT22;18176;49.502;11.754;2022-12-29T22:40:39;7.20;99.90
21184;DHT22;18176;49.502;11.754;2022-12-29T22:44:40;7.20;99.90
21184;DHT22;18176;49.502;11.754;2022-12-29T22:48:43;7.10;99.90
21184;DHT22;18176;49.502;11.754;2022-12-29T22:52:43;7.10;99.90
21184;DHT22;18176;49.502;11.754;2022-12-29T22:56:43;7.00;99.90
21184;DHT22;18176;49.502;11.754;2022-12-29T23:00:43;6.90;99.90
21184;DHT22;18176;49.502;11.754;2022-12-29T23:04:46;6.90;99.90
21184;DHT22;18176;49.502;11.754;2022-12-29T23:09:04;6.90;99.90
21184;DHT22;18176;49.502;11.754;2022-12-29T23:13:04;6.90;99.90
21184;DHT22;18176;49.502;11.754;2022-12-29T23:17:04;6.80;99.90
21184;DHT22;18176;49.502;11.754;2022-12-29T23:21:07;6.80;99.90
21184;DHT22;18176;49.502;11.754;2022-12-29T23:25:08;6.80;99.90
21184;DHT22;18176;49.502;11.754;2022-12-29T23:29:12;6.80;99.90
21184;DHT22;18176;49.502;11.754;2022-12-29T23:33:13;6.70;99.90
21184;DHT22;18176;49.502;11.754;2022-12-29T23:37:16;6.70;99.90
21184;DHT22;18176;49.502;11.754;2022-12-29T23:41:16;6.60;99.90
21184;DHT22;18176;49.502;11.754;2022-12-29T23:45:17;6.70;99.90
21184;DHT22;18176;49.502;11.754;2022-12-29T23:49:17;6.70;99.90
21184;DHT22;18176;49.502;11.754;2022-12-29T23:53:20;6.60;99.90
21184;DHT22;18176;49.502;11.754;2022-12-29T23:57:20;6.60;99.90
